Data for 10/05/2016

Time Sea-Level Adjusted Pressure Absolute Pressure Temperature Relative Humidity Dew Point   
(mb) (inHg) (mb) (inHg) (C) (F) (%) (C) (F)
00:05 1014 29.94 843 24.89 4.4 39.9 76 0.6 33
00:10 1014 29.94 843 24.89 4.5 40 75 0.5 32.9
00:15 1014 29.94 843 24.89 4.6 40.2 75 0.5 32.9
00:20 1014 29.94 843 24.89 4.6 40.3 75 0.5 32.9
00:25 1014 29.94 843 24.89 4.6 40.3 74 0.5 32.8
00:30 1014 29.94 843 24.89 4.7 40.5 74 0.4 32.7
00:35 1014 29.94 843 24.89 4.8 40.7 73 0.5 32.8
00:40 1014 29.94 843 24.89 4.9 40.8 73 0.4 32.7
00:45 1014 29.94 843 24.89 5 41 73 0.6 33.1
00:50 1014 29.94 843 24.89 5 41 75 1 33.7
00:55 1014 29.94 843 24.89 4.9 40.8 76 1 33.9
01:00 1014 29.94 843 24.89 4.8 40.6 77 1 33.9
01:05 1014 29.94 843 24.89 4.7 40.5 79 1.3 34.3
01:10 1014 29.94 843 24.89 4.5 40.2 78 1.1 33.9
01:15 1014 29.94 843 24.89 4.5 40 79 1.2 34.1
01:20 1014 29.94 843 24.89 4.5 40 79 1.2 34.2
01:25 1014 29.94 843 24.89 4.5 40 80 1.4 34.5
01:30 1014 29.94 843 24.89 4.4 39.9 81 1.4 34.5
01:35 1014 29.94 843 24.89 4.4 39.9 81 1.4 34.5
01:40 1014 29.94 843 24.89 4.4 40 81 1.4 34.6
01:45 1014 29.94 843 24.89 4.4 40 81 1.5 34.7
01:50 1014 29.94 843 24.89 4.4 39.9 82 1.6 34.9
01:55 1014 29.94 843 24.89 4.4 39.9 82 1.5 34.8
02:00 1014 29.94 843 24.89 4.4 39.9 82 1.6 34.9
02:05 1014 29.94 843 24.89 4.4 39.9 82 1.6 34.9
02:10 1014 29.94 843 24.89 4.3 39.8 82 1.4 34.6
02:15 1014 29.94 843 24.89 4.3 39.7 83 1.7 35
02:20 1014 29.94 843 24.89 4.2 39.6 83 1.6 34.9
02:25 1014 29.94 843 24.89 4.3 39.7 83 1.7 35.1
02:30 1014 29.94 843 24.89 4.3 39.7 84 1.8 35.2
02:35 1014 29.94 843 24.89 4.3 39.7 84 1.8 35.3
02:40 1014 29.94 843 24.89 4.2 39.6 84 1.8 35.2
02:45 1014 29.94 843 24.89 4.2 39.6 83 1.7 35
02:50 1014 29.94 843 24.89 4.3 39.7 83 1.7 35.1
02:55 1014 29.94 843 24.89 4.3 39.7 83 1.7 35.1
03:00 1014 29.94 843 24.89 4.1 39.4 84 1.7 35.1
03:05 1014 29.94 843 24.89 3.4 38.2 87 1.4 34.6
03:10 1014 29.94 843 24.89 3.1 37.6 88 1.3 34.4
03:15 1014 29.94 843 24.89 3 37.5 88 1.2 34.2
03:20 1014 29.94 843 24.89 3 37.5 87 1.2 34.1
03:25 1014 29.94 843 24.89 3 37.4 88 1.1 34.1
03:30 1014 29.94 843 24.89 3 37.4 88 1.1 34
03:35 1014 29.94 843 24.89 3 37.3 85 0.8 33.4
03:40 1014 29.94 843 24.89 3 37.3 86 0.8 33.4
03:45 1014 29.94 843 24.89 3 37.4 85 0.8 33.4
03:50 1014 29.94 843 24.89 3.1 37.5 85 0.8 33.4
03:55 1014 29.94 843 24.89 3.1 37.5 85 0.7 33.3
04:00 1014 29.94 843 24.89 3.1 37.5 85 0.7 33.3
04:05 1014 29.94 844 24.92 3.1 37.6 85 0.8 33.5
04:10 1014 29.94 844 24.92 3.1 37.6 85 0.8 33.4
04:15 1014 29.94 844 24.92 3.1 37.7 84 0.7 33.3
04:20 1014 29.94 844 24.92 3.2 37.7 84 0.7 33.3
04:25 1014 29.94 844 24.92 3.2 37.7 85 0.9 33.6
04:30 1014 29.94 844 24.92 3.1 37.7 85 0.9 33.7
04:35 1014 29.94 844 24.92 3.1 37.6 85 0.9 33.5
04:40 1014 29.94 844 24.92 3.1 37.5 86 0.9 33.6
04:45 1014 29.94 844 24.92 3.1 37.5 86 0.9 33.7
04:50 1014 29.94 844 24.92 3.1 37.6 85 0.8 33.5
04:55 1014 29.94 844 24.92 3.2 37.7 85 0.9 33.6
05:00 1014 29.94 844 24.92 3.2 37.8 84 0.7 33.2
05:05 1014 29.94 844 24.92 3.3 37.9 82 0.5 32.8
05:10 1014 29.94 844 24.92 3.4 38.1 82 0.7 33.2
05:15 1015 29.97 844 24.92 3.5 38.3 84 1 33.9
05:20 1015 29.97 844 24.92 3.6 38.4 85 1.3 34.4
05:25 1015 29.97 844 24.92 3.6 38.5 86 1.4 34.6
05:30 1015 29.97 844 24.92 3.7 38.6 85 1.4 34.6
05:35 1015 29.97 844 24.92 3.7 38.6 85 1.3 34.4
05:40 1015 29.97 844 24.92 3.7 38.6 84 1.2 34.2
05:45 1015 29.97 844 24.92 3.6 38.5 86 1.5 34.7
05:50 1015 29.97 844 24.92 3.5 38.4 86 1.5 34.6
05:55 1015 29.97 844 24.92 3.5 38.4 85 1.3 34.4
06:00 1015 29.97 844 24.92 3.5 38.4 85 1.2 34.1
06:05 1014 29.94 844 24.92 3.5 38.4 83 1 33.7
06:10 1015 29.97 844 24.92 3.6 38.5 83 1 33.8
06:15 1015 29.97 844 24.92 3.8 38.8 82 0.9 33.7
06:20 1015 29.97 844 24.92 3.9 39 81 0.8 33.5
06:25 1015 29.97 844 24.92 3.9 39 80 0.8 33.4
06:30 1015 29.97 844 24.92 3.9 39.1 80 0.8 33.4
06:35 1015 29.97 844 24.92 4 39.2 78 0.5 33
06:40 1015 29.97 844 24.92 4.1 39.3 78 0.7 33.2
06:45 1015 29.97 844 24.92 4.1 39.4 78 0.6 33.1
06:50 1015 29.97 844 24.92 4.1 39.5 78 0.7 33.3
06:55 1015 29.97 844 24.92 4.2 39.6 78 0.7 33.2
07:00 1015 29.97 844 24.92 4.3 39.7 77 0.6 33.1
07:05 1015 29.97 844 24.92 4.4 39.9 77 0.8 33.4
07:10 1015 29.97 844 24.92 4.5 40.1 77 0.9 33.5
07:15 1015 29.97 844 24.92 4.6 40.3 79 1.2 34.2
07:20 1015 29.97 844 24.92 4.3 39.8 85 2 35.7
07:25 1015 29.97 844 24.92 3.8 38.8 87 1.8 35.3
07:30 1015 29.97 844 24.92 3.8 38.8 87 1.9 35.4
07:35 1015 29.97 844 24.92 4 39.2 85 1.7 35.1
07:40 1015 29.97 844 24.92 4.1 39.4 84 1.7 35
07:45 1015 29.97 844 24.92 4.1 39.4 85 1.7 35.1
07:50 1015 29.97 844 24.92 4.1 39.3 84 1.6 34.9
07:55 1015 29.97 844 24.92 4.1 39.3 86 2 35.6
08:00 1015 29.97 844 24.92 4.3 39.7 84 1.9 35.4
08:05 1015 29.97 844 24.92 4.6 40.2 83 1.9 35.4
08:10 1015 29.97 844 24.92 4.7 40.5 81 1.8 35.2
08:15 1015 29.97 844 24.92 4.8 40.6 82 1.9 35.5
08:20 1015 29.97 844 24.92 4.7 40.5 82 2 35.5
08:25 1015 29.97 844 24.92 4.4 39.9 84 2 35.6
08:30 1015 29.97 845 24.95 3.6 38.4 88 1.8 35.3
08:35 1015 29.97 845 24.95 3 37.5 90 1.5 34.7
08:40 1016 30 845 24.95 2.9 37.2 90 1.4 34.5
08:45 1016 30 845 24.95 2.6 36.7 90 1.2 34.1
08:50 1016 30 845 24.95 2.3 36.2 91 1 33.7
08:55 1016 30 845 24.95 2.3 36.2 91 1 33.7
09:00 1016 30 845 24.95 2.6 36.8 90 1.2 34.1
09:05 1016 30 845 24.95 2.9 37.2 90 1.5 34.7
09:10 1016 30 845 24.95 3.3 37.9 88 1.5 34.7
09:15 1016 30 845 24.95 3.5 38.3 86 1.4 34.5
09:20 1016 30 845 24.95 3.7 38.6 86 1.5 34.7
09:25 1016 30 845 24.95 3.8 38.8 86 1.6 35
09:30 1016 30 845 24.95 3.9 39 84 1.5 34.7
09:35 1016 30 845 24.95 4 39.1 83 1.3 34.3
09:40 1016 30 845 24.95 3.9 39.1 82 1.2 34.2
09:45 1016 30 845 24.95 4 39.1 82 1.1 34
09:50 1016 30 845 24.95 4 39.2 82 1.2 34.2
09:55 1016 30 845 24.95 4 39.2 81 1 33.8
10:00 1016 30 845 24.95 4 39.2 81 1.1 33.9
10:05 1016 30 845 24.95 4 39.2 82 1.2 34.1
10:10 1016 30 845 24.95 4 39.3 82 1.2 34.2
10:15 1016 30 845 24.95 4.1 39.4 80 1 33.8
10:20 1016 30 845 24.95 4.1 39.4 79 0.7 33.3
10:25 1016 30 845 24.95 4 39.3 78 0.5 33
10:30 1016 30 845 24.95 4.1 39.4 79 0.7 33.3
10:35 1016 30 845 24.95 4.2 39.5 78 0.7 33.3
10:40 1016 30 845 24.95 4.3 39.8 78 0.8 33.4
10:45 1016 30 845 24.95 4.4 40 76 0.6 33.2
10:50 1016 30 845 24.95 4.5 40.1 77 0.9 33.6
10:55 1016 30 845 24.95 4.8 40.6 74 0.6 33.1
11:00 1016 30 845 24.95 4.6 40.3 77 0.9 33.7
11:05 1016 30 845 24.95 4.8 40.6 76 0.9 33.6
11:10 1016 30 845 24.95 5.1 41.1 74 0.9 33.6
11:15 1016 30 845 24.95 5.3 41.5 74 1.1 34
11:20 1016 30 845 24.95 5.5 41.8 73 1.1 33.9
11:25 1016 30 845 24.95 5.5 42 74 1.3 34.3
11:30 1016 30 845 24.95 5.7 42.3 71 0.9 33.7
11:35 1016 30 845 24.95 5.8 42.5 70 0.9 33.5
11:40 1016 30 845 24.95 5.9 42.6 69 0.7 33.2
11:45 1016 30 845 24.95 5.9 42.6 69 0.7 33.2
11:50 1016 30 845 24.95 5.5 41.9 71 0.7 33.3
11:55 1016 30 845 24.95 5.7 42.2 70 0.6 33.1
12:00 1016 30 845 24.95 5.6 42.1 71 0.8 33.5
12:05 1016 30 845 24.95 5.7 42.2 67 0.1 32.2
12:10 1016 30 845 24.95 6.1 42.9 67 0.3 32.6
12:15 1016 30 845 24.95 6.6 43.9 64 0.4 32.6
12:20 1016 30 845 24.95 6.9 44.4 65 0.7 33.3
12:25 1016 30 845 24.95 6.9 44.3 63 0.4 32.7
12:30 1016 30 845 24.95 6.6 43.9 65 0.6 33
12:35 1016 30 845 24.95 6.6 43.8 63 -0 32
12:40 1016 30 845 24.95 7 44.5 62 0.2 32.4
12:45 1016 30 845 24.95 7.3 45.2 62 0.6 33.1
12:50 1016 30 845 24.95 6.8 44.3 65 0.6 33.1
12:55 1016 30 845 24.95 7.3 45.2 62 0.6 33
13:00 1016 30 845 24.95 7.9 46.2 61 0.9 33.6
13:05 1016 30 845 24.95 7.2 45 65 1 33.9
13:10 1016 30 845 24.95 7.4 45.4 59 -0 32
13:15 1016 30 845 24.95 7.9 46.2 59 0.4 32.6
13:20 1016 30 845 24.95 7.8 46 60 0.5 32.9
13:25 1016 30 845 24.95 7.5 45.5 62 0.7 33.2
13:30 1016 30 845 24.95 7 44.6 64 0.6 33
13:35 1016 30 845 24.95 7.1 44.7 62 0.3 32.6
13:40 1016 30 845 24.95 7.3 45.1 61 0.3 32.5
13:45 1016 30 845 24.95 7.2 45 62 0.4 32.7
13:50 1016 30 845 24.95 7 44.6 64 0.7 33.2
13:55 1016 30 845 24.95 6.9 44.5 61 -0.1 31.8
14:00 1016 30 845 24.95 7.5 45.5 58 -0.1 31.7
14:05 1016 30 845 24.95 8.4 47 54 -0.3 31.5
14:10 1016 30 845 24.95 8.1 46.6 56 -0.2 31.6
14:15 1016 30 845 24.95 8.4 47.1 55 -0.2 31.7
14:20 1016 30 845 24.95 8.7 47.6 54 -0.1 31.9
14:25 1016 30 845 24.95 8.7 47.6 53 -0.3 31.5
14:30 1016 30 845 24.95 9 48.3 55 0.6 33.1
14:35 1016 30 845 24.95 8.2 46.8 57 0.1 32.3
14:40 1016 30 845 24.95 7.6 45.7 57 -0.3 31.5
14:45 1016 30 845 24.95 7.6 45.7 56 -0.5 31
14:50 1016 30 845 24.95 7.6 45.7 59 0.1 32.2
14:55 1016 30 845 24.95 7.3 45.2 59 -0 31.9
15:00 1016 30 845 24.95 7.4 45.3 60 0.1 32.2
15:05 1016 30 845 24.95 7.2 44.9 59 -0.1 31.7
15:10 1016 30 846 24.98 7.2 44.9 59 -0.3 31.5
15:15 1016 30 846 24.98 7.2 44.9 59 -0.3 31.5
15:20 1016 30 846 24.98 7.2 45 59 -0.2 31.7
15:25 1016 30 846 24.98 7 44.6 61 -0.1 31.8
15:30 1017 30.03 846 24.98 6.7 44.1 61 -0.1 31.8
15:35 1017 30.03 846 24.98 6.8 44.2 61 -0.1 31.8
15:40 1017 30.03 846 24.98 6.7 44.1 62 0 32.1
15:45 1017 30.03 846 24.98 6.6 43.9 62 -0 32
15:50 1017 30.03 846 24.98 6.6 43.9 61 -0.3 31.5
15:55 1017 30.03 846 24.98 6.5 43.8 62 -0.3 31.4
16:00 1017 30.03 846 24.98 6.3 43.4 63 -0.2 31.6
16:05 1017 30.03 846 24.98 6.1 42.9 64 -0.2 31.6
16:10 1017 30.03 846 24.98 5.8 42.4 69 0.5 32.8
16:15 1017 30.03 846 24.98 5.7 42.3 68 0.2 32.4
16:20 1017 30.03 846 24.98 5.7 42.3 67 0.1 32.1
16:25 1017 30.03 846 24.98 5.7 42.2 68 0.1 32.3
16:30 1017 30.03 846 24.98 5.7 42.3 68 0.3 32.5
16:35 1017 30.03 846 24.98 6.1 42.9 66 0.2 32.4
16:40 1017 30.03 846 24.98 6.3 43.3 65 0.3 32.5
16:45 1017 30.03 846 24.98 6.4 43.5 66 0.6 33.1
16:50 1017 30.03 846 24.98 6.2 43.2 65 0.2 32.4
16:55 1017 30.03 846 24.98 6.4 43.5 65 0.3 32.5
17:00 1017 30.03 846 24.98 6.7 44 63 0.2 32.3
17:05 1017 30.03 846 24.98 6.5 43.7 66 0.6 33
17:10 1017 30.03 846 24.98 5.8 42.5 67 0.3 32.5
17:15 1017 30.03 847 25.01 5.5 42 68 0.2 32.3
17:20 1017 30.03 847 25.01 5.4 41.7 69 0.2 32.4
17:25 1017 30.03 847 25.01 5.3 41.6 71 0.5 32.8
17:30 1018 30.06 847 25.01 5.1 41.3 73 0.8 33.4
17:35 1018 30.06 847 25.01 5 40.9 73 0.5 32.9
17:40 1018 30.06 847 25.01 5 40.9 72 0.4 32.7
17:45 1018 30.06 847 25.01 4.9 40.8 73 0.5 32.9
17:50 1018 30.06 847 25.01 4.7 40.4 75 0.6 33.1
17:55 1018 30.06 847 25.01 4.5 40.1 75 0.5 32.8
18:00 1018 30.06 847 25.01 4.5 40.1 75 0.5 32.9
18:05 1018 30.06 847 25.01 4.4 39.9 76 0.5 33
18:10 1018 30.06 847 25.01 4.3 39.7 76 0.5 33
18:15 1018 30.06 847 25.01 4.2 39.6 77 0.6 33
18:20 1018 30.06 847 25.01 4 39.2 78 0.6 33
18:25 1018 30.06 847 25.01 3.8 38.9 79 0.5 32.9
18:30 1018 30.06 847 25.01 3.6 38.6 80 0.4 32.8
18:35 1018 30.06 847 25.01 3.6 38.4 79 0.3 32.6
18:40 1018 30.06 847 25.01 3.6 38.4 79 0.3 32.6
18:45 1018 30.06 847 25.01 3.5 38.4 79 0.3 32.6
18:50 1018 30.06 847 25.01 3.5 38.4 80 0.3 32.6
18:55 1018 30.06 847 25.01 3.5 38.2 79 0.2 32.3
19:00 1018 30.06 847 25.01 3.4 38.2 79 0.1 32.3
19:05 1018 30.06 847 25.01 3.3 38 81 0.3 32.6
19:10 1018 30.06 847 25.01 3.1 37.6 82 0.3 32.6
19:15 1018 30.06 847 25.01 2.7 36.8 84 0.2 32.4
19:20 1018 30.06 847 25.01 2.3 36.1 86 0.2 32.3
19:25 1018 30.06 847 25.01 2.2 36 86 0 32.1
19:30 1018 30.06 847 25.01 2.1 35.8 86 -0 32
19:35 1018 30.06 847 25.01 2 35.6 87 0 32.1
19:40 1018 30.06 848 25.04 2.1 35.8 87 0.2 32.3
19:45 1018 30.06 848 25.04 2.3 36.1 86 0.1 32.2
19:50 1018 30.06 848 25.04 2.2 36 85 -0 31.9
19:55 1018 30.06 848 25.04 1.9 35.4 86 -0.3 31.5
20:00 1018 30.06 848 25.04 1.7 35.1 87 -0.3 31.5
20:05 1018 30.06 848 25.04 1.7 35.1 87 -0.3 31.4
20:10 1019 30.09 848 25.04 1.7 35 87 -0.3 31.4
20:15 1019 30.09 848 25.04 1.6 34.8 88 -0.3 31.5
20:20 1019 30.09 848 25.04 1.5 34.7 87 -0.5 31.1
20:25 1019 30.09 848 25.04 1.7 35.1 84 -0.6 30.9
20:30 1019 30.09 848 25.04 1.7 35 85 -0.5 31.1
20:35 1019 30.09 848 25.04 1.7 35.1 86 -0.4 31.2
20:40 1019 30.09 848 25.04 1.8 35.3 84 -0.5 31.1
20:45 1019 30.09 848 25.04 1.8 35.3 85 -0.5 31.1
20:50 1019 30.09 848 25.04 1.9 35.4 84 -0.5 31.2
20:55 1019 30.09 848 25.04 1.8 35.3 85 -0.5 31.1
21:00 1019 30.09 848 25.04 2 35.6 84 -0.5 31.1
21:05 1019 30.09 848 25.04 2 35.6 83 -0.5 31
21:10 1019 30.09 848 25.04 2.1 35.7 83 -0.5 31.1
21:15 1019 30.09 848 25.04 2.2 35.9 83 -0.5 31.2
21:20 1019 30.09 848 25.04 2.2 35.9 83 -0.4 31.3
21:25 1019 30.09 848 25.04 2.2 36 83 -0.3 31.4
21:30 1019 30.09 848 25.04 2.4 36.3 83 -0.2 31.7
21:35 1019 30.09 848 25.04 2.5 36.6 82 -0.2 31.7
21:40 1019 30.09 848 25.04 2.6 36.7 81 -0.3 31.4
21:45 1019 30.09 848 25.04 2.6 36.6 81 -0.4 31.3
21:50 1019 30.09 848 25.04 2.7 36.9 81 -0.2 31.6
21:55 1019 30.09 848 25.04 2.8 37.1 81 -0.2 31.7
22:00 1019 30.09 848 25.04 2.9 37.1 82 0.1 32.1
22:05 1019 30.09 848 25.04 2.6 36.7 83 0.1 32.1
22:10 1019 30.09 848 25.04 2.2 36 85 -0.1 31.8
22:15 1019 30.09 848 25.04 2 35.6 85 -0.2 31.7
22:20 1019 30.09 848 25.04 1.9 35.5 85 -0.3 31.5
22:25 1019 30.09 848 25.04 2 35.7 84 -0.3 31.4
22:30 1019 30.09 848 25.04 2.1 35.8 84 -0.3 31.5
22:35 1019 30.09 848 25.04 2.3 36.2 83 -0.3 31.5
22:40 1019 30.09 848 25.04 2.5 36.5 82 -0.2 31.7
22:45 1019 30.09 848 25.04 2.6 36.7 82 -0.1 31.8
22:50 1019 30.09 849 25.07 2.5 36.5 83 -0 32
22:55 1019 30.09 849 25.07 2.4 36.4 84 -0 31.9
23:00 1019 30.09 849 25.07 2.3 36.2 84 -0.1 31.9
23:05 1019 30.09 849 25.07 2.4 36.3 83 -0.1 31.8
23:10 1019 30.09 849 25.07 2.5 36.5 84 0 32
23:15 1019 30.09 849 25.07 2.6 36.7 83 0 32
23:20 1019 30.09 849 25.07 2.8 37 82 0.1 32.1
23:25 1020 30.12 849 25.07 2.9 37.1 83 0.2 32.4
23:30 1020 30.12 849 25.07 2.9 37.3 84 0.4 32.8
23:35 1020 30.12 849 25.07 2.9 37.2 86 0.8 33.5
23:40 1020 30.12 849 25.07 2.6 36.6 87 0.7 33.2
23:45 1020 30.12 849 25.07 2.2 36 88 0.4 32.8
23:50 1020 30.12 849 25.07 1.9 35.4 90 0.5 32.8
23:55 1020 30.12 849 25.07 1.7 35.1 90 0.2 32.4
24:00 1019 30.09 849 25.07 1.4 34.5 91 0 32.1